Time;durP1;ratioP1;P1;durP2;ratioP2;P2;SDS_P1;SDS_P2;PMS_P1;PMS_P2;Temp;Humidity;BMP_temperature;BMP_pressure;BME280_temperature;BME280_humidity;BME280_pressure;Samples;Min_cycle;Max_cycle;Signal;HPM_P1;HPM_P2
2023/04/22 00:02:22;;;;;;;;;;;;;;;6.48;60.83;96553.39;108577;1282;22623;-82
2023/04/22 00:04:49;;;;;;;;;;;;;;;6.43;60.90;96553.55;108558;1280;22515;-83
2023/04/22 00:07:16;;;;;;;;;;;;;;;6.50;60.63;96552.77;108581;1282;22515;-82
2023/04/22 00:09:44;;;;;;;;;;;;;;;6.57;60.47;96555.02;108589;1271;22592;-82
2023/04/22 00:12:12;;;;;;;;;;;;;;;6.59;60.49;96553.02;108584;1282;25243;-82
2023/04/22 00:14:39;;;;;;;;;;;;;;;6.65;60.39;96552.83;108595;1282;23856;-82
2023/04/22 00:17:06;;;;;;;;;;;;;;;6.69;60.21;96553.21;108566;1282;22522;-83
2023/04/22 00:19:33;;;;;;;;;;;;;;;6.69;60.42;96552.52;108583;1275;22549;-82
2023/04/22 00:22:00;;;;;;;;;;;;;;;6.62;60.55;96550.74;108594;1282;22533;-82
2023/04/22 00:24:28;;;;;;;;;;;;;;;6.49;61.10;96551.61;108594;1282;26126;-82
2023/04/22 00:26:56;;;;;;;;;;;;;;;6.43;61.14;96550.61;108589;1274;23184;-83
2023/04/22 00:29:24;;;;;;;;;;;;;;;6.47;60.91;96552.80;108616;1282;23170;-83
2023/04/22 00:31:51;;;;;;;;;;;;;;;6.49;60.91;96546.61;108571;1281;22822;-83
2023/04/22 00:34:21;;;;;;;;;;;;;;;6.45;60.97;96546.98;108602;1275;24675;-83
2023/04/22 00:36:50;;;;;;;;;;;;;;;6.43;61.10;96544.92;108586;1275;22514;-82
2023/04/22 00:39:17;;;;;;;;;;;;;;;6.40;61.26;96545.91;108627;1282;24252;-82
2023/04/22 00:41:45;;;;;;;;;;;;;;;6.38;61.57;96542.63;108636;1281;22559;-82
2023/04/22 00:44:13;;;;;;;;;;;;;;;6.34;61.55;96544.45;108582;1281;26174;-82
2023/04/22 00:46:40;;;;;;;;;;;;;;;6.33;61.62;96543.16;108579;1283;22601;-83
2023/04/22 00:49:07;;;;;;;;;;;;;;;6.28;61.61;96544.19;108568;1280;23790;-83
2023/04/22 00:51:34;;;;;;;;;;;;;;;6.21;61.80;96538.56;108592;1282;23856;-82
2023/04/22 00:54:03;;;;;;;;;;;;;;;6.16;61.81;96538.46;108646;1275;22574;-82
2023/04/22 00:56:30;;;;;;;;;;;;;;;6.17;61.77;96535.77;108559;1282;24601;-82
2023/04/22 00:58:58;;;;;;;;;;;;;;;6.21;61.86;96534.98;108625;1278;22507;-82
2023/04/22 01:01:25;;;;;;;;;;;;;;;6.21;62.15;96535.73;108605;1281;22535;-83
2023/04/22 01:03:52;;;;;;;;;;;;;;;6.17;62.06;96534.40;108587;1275;22486;-82
2023/04/22 01:06:21;;;;;;;;;;;;;;;6.19;61.93;96538.06;108618;1282;23311;-83
2023/04/22 01:08:48;;;;;;;;;;;;;;;6.18;62.21;96536.21;108608;1282;23856;-82
2023/04/22 01:11:15;;;;;;;;;;;;;;;6.15;62.46;96534.34;108622;1275;22551;-82
2023/04/22 01:13:43;;;;;;;;;;;;;;;6.16;62.48;96535.88;108600;1282;22522;-83
2023/04/22 01:16:10;;;;;;;;;;;;;;;6.22;62.26;96536.77;108539;1282;22544;-82
2023/04/22 01:18:38;;;;;;;;;;;;;;;6.27;62.12;96535.91;108587;1282;22557;-82
2023/04/22 01:21:06;;;;;;;;;;;;;;;6.28;61.98;96537.86;108554;1282;22541;-83
2023/04/22 01:23:33;;;;;;;;;;;;;;;6.31;61.95;96536.98;108616;1282;22526;-83
2023/04/22 01:26:00;;;;;;;;;;;;;;;6.28;62.03;96537.55;108571;1282;22514;-83
2023/04/22 01:28:28;;;;;;;;;;;;;;;6.29;61.98;96539.13;108613;1282;25405;-82
2023/04/22 01:30:55;;;;;;;;;;;;;;;6.30;62.18;96542.88;108591;1282;23804;-83
2023/04/22 01:33:23;;;;;;;;;;;;;;;6.29;62.24;96543.45;108589;1281;23775;-83
2023/04/22 01:35:50;;;;;;;;;;;;;;;6.33;62.29;96542.58;108597;1282;26574;-83
2023/04/22 01:38:17;;;;;;;;;;;;;;;6.33;62.26;96541.54;108598;1282;22609;-82
2023/04/22 01:40:44;;;;;;;;;;;;;;;6.29;62.40;96547.19;108650;1282;22607;-83
2023/04/22 01:43:12;;;;;;;;;;;;;;;6.23;62.37;96542.27;108617;1282;24183;-82
2023/04/22 01:45:39;;;;;;;;;;;;;;;6.17;62.38;96538.88;108537;1282;27960;-83
2023/04/22 01:48:06;;;;;;;;;;;;;;;6.14;62.69;96543.13;108584;1282;24071;-83
2023/04/22 01:50:33;;;;;;;;;;;;;;;6.13;62.80;96543.02;108568;1274;22919;-83
2023/04/22 01:53:00;;;;;;;;;;;;;;;6.10;62.85;96543.31;108610;1282;22507;-83
2023/04/22 01:55:27;;;;;;;;;;;;;;;6.10;62.71;96540.21;108578;1282;22881;-83
2023/04/22 01:57:55;;;;;;;;;;;;;;;6.06;62.86;96540.27;108607;1276;22536;-82
2023/04/22 02:00:22;;;;;;;;;;;;;;;6.01;63.13;96541.34;108574;1282;24228;-82
2023/04/22 02:02:49;;;;;;;;;;;;;;;6.00;63.19;96540.17;108611;1281;25250;-83
2023/04/22 02:05:17;;;;;;;;;;;;;;;5.92;63.41;96537.63;108615;1282;23199;-82
2023/04/22 02:07:44;;;;;;;;;;;;;;;5.86;63.64;96533.91;108618;1282;22520;-82
2023/04/22 02:10:11;;;;;;;;;;;;;;;5.80;63.83;96533.66;108576;1281;22516;-82
2023/04/22 02:12:38;;;;;;;;;;;;;;;5.71;64.05;96532.93;108614;1274;23252;-82
2023/04/22 02:15:07;;;;;;;;;;;;;;;5.65;64.17;96532.11;108551;1275;25051;-83
2023/04/22 02:17:34;;;;;;;;;;;;;;;5.67;64.18;96532.02;108572;1275;22636;-83
2023/04/22 02:20:02;;;;;;;;;;;;;;;5.74;64.18;96528.42;108559;1282;22511;-83
2023/04/22 02:22:30;;;;;;;;;;;;;;;5.84;64.00;96523.73;108604;1278;25412;-83
2023/04/22 02:24:57;;;;;;;;;;;;;;;5.92;64.06;96527.28;108575;1276;27504;-83
2023/04/22 02:27:24;;;;;;;;;;;;;;;5.94;63.91;96523.98;108632;1278;22522;-83
2023/04/22 02:29:52;;;;;;;;;;;;;;;5.97;63.89;96526.98;108560;1279;22508;-83
2023/04/22 02:32:19;;;;;;;;;;;;;;;6.00;63.49;96524.75;108592;1281;24216;-83
2023/04/22 02:34:47;;;;;;;;;;;;;;;6.02;63.57;96526.08;108541;1275;25198;-83
2023/04/22 02:37:14;;;;;;;;;;;;;;;6.05;63.52;96525.91;108590;1282;24968;-83
2023/04/22 02:39:41;;;;;;;;;;;;;;;6.03;63.41;96525.73;108583;1282;22537;-83
2023/04/22 02:42:09;;;;;;;;;;;;;;;5.93;63.87;96527.02;108561;1282;22483;-83
2023/04/22 02:44:36;;;;;;;;;;;;;;;5.82;63.93;96530.05;108542;1282;27122;-83
2023/04/22 02:47:03;;;;;;;;;;;;;;;5.75;63.98;96529.96;108522;1283;22542;-83
2023/04/22 02:49:30;;;;;;;;;;;;;;;5.71;64.15;96530.73;108581;1282;23634;-83
2023/04/22 02:51:57;;;;;;;;;;;;;;;5.72;64.36;96530.52;108572;1282;22508;-83
2023/04/22 02:54:24;;;;;;;;;;;;;;;5.74;64.16;96527.64;108569;1282;22520;-83
2023/04/22 02:56:52;;;;;;;;;;;;;;;5.75;64.19;96527.34;108550;1282;22530;-83
2023/04/22 02:59:19;;;;;;;;;;;;;;;5.73;64.22;96526.95;108569;1281;23425;-83
2023/04/22 03:01:46;;;;;;;;;;;;;;;5.69;64.16;96527.09;108593;1281;22549;-83
2023/04/22 03:04:14;;;;;;;;;;;;;;;5.65;64.26;96525.95;108567;1282;22543;-83
2023/04/22 03:06:41;;;;;;;;;;;;;;;5.62;64.57;96530.42;108604;1281;23741;-83
2023/04/22 03:09:08;;;;;;;;;;;;;;;5.65;64.57;96528.10;108543;1282;22511;-83
2023/04/22 03:11:35;;;;;;;;;;;;;;;5.66;64.40;96526.95;108622;1282;24898;-83
2023/04/22 03:14:02;;;;;;;;;;;;;;;5.64;64.48;96528.36;108605;1282;22526;-83
2023/04/22 03:16:29;;;;;;;;;;;;;;;5.63;64.68;96530.69;108569;1282;23806;-83
2023/04/22 03:18:57;;;;;;;;;;;;;;;5.67;64.65;96527.23;108540;1282;22577;-83
2023/04/22 03:21:24;;;;;;;;;;;;;;;5.77;64.42;96531.68;108582;1282;22620;-83
2023/04/22 03:23:51;;;;;;;;;;;;;;;5.83;64.16;96530.00;108589;1282;24929;-83
2023/04/22 03:26:18;;;;;;;;;;;;;;;5.93;63.94;96530.89;108561;1274;25412;-83
2023/04/22 03:28:45;;;;;;;;;;;;;;;6.09;63.91;96530.61;108548;1279;23574;-83
2023/04/22 03:31:13;;;;;;;;;;;;;;;6.14;63.48;96526.96;108526;1282;23318;-83
2023/04/22 03:33:40;;;;;;;;;;;;;;;6.19;63.52;96525.95;108569;1276;22507;-83
2023/04/22 03:36:08;;;;;;;;;;;;;;;6.28;63.37;96530.97;108581;1279;25324;-83
2023/04/22 03:38:35;;;;;;;;;;;;;;;6.30;63.38;96534.77;108581;1281;25228;-83
2023/04/22 03:41:02;;;;;;;;;;;;;;;6.30;63.39;96536.24;108615;1277;22512;-83
2023/04/22 03:43:30;;;;;;;;;;;;;;;6.29;63.29;96536.92;108575;1282;22519;-83
2023/04/22 03:45:58;;;;;;;;;;;;;;;6.35;63.03;96539.88;108501;1282;22555;-83
2023/04/22 03:48:25;;;;;;;;;;;;;;;6.36;63.00;96537.98;108583;1281;22512;-83
2023/04/22 03:50:52;;;;;;;;;;;;;;;6.36;63.11;96542.31;108572;1281;22586;-83
2023/04/22 03:53:20;;;;;;;;;;;;;;;6.34;62.91;96542.20;108650;1281;22651;-83
2023/04/22 03:55:47;;;;;;;;;;;;;;;6.36;63.02;96540.36;108543;1281;22567;-83
2023/04/22 03:58:14;;;;;;;;;;;;;;;6.37;62.87;96541.99;108566;1282;22552;-83
2023/04/22 04:00:42;;;;;;;;;;;;;;;6.40;63.05;96546.96;108574;1282;23781;-83
2023/04/22 04:03:09;;;;;;;;;;;;;;;6.48;62.98;96547.80;108523;1281;23297;-84
2023/04/22 04:05:36;;;;;;;;;;;;;;;6.54;62.89;96548.27;108537;1282;24552;-84
2023/04/22 04:08:04;;;;;;;;;;;;;;;6.58;62.81;96547.70;108581;1281;25423;-84
2023/04/22 04:10:31;;;;;;;;;;;;;;;6.62;62.80;96552.11;108623;1282;22537;-84
2023/04/22 04:12:58;;;;;;;;;;;;;;;6.65;62.69;96552.71;108555;1282;22515;-84
2023/04/22 04:15:26;;;;;;;;;;;;;;;6.74;62.46;96552.87;108528;1282;27290;-84
2023/04/22 04:17:55;;;;;;;;;;;;;;;6.86;62.29;96551.10;108535;1279;24035;-84
2023/04/22 04:20:22;;;;;;;;;;;;;;;6.97;62.12;96552.52;108582;1282;22536;-84
2023/04/22 04:22:50;;;;;;;;;;;;;;;7.11;62.15;96554.59;108579;1282;22551;-84
2023/04/22 04:25:20;;;;;;;;;;;;;;;7.27;61.78;96556.73;108509;1279;25622;-84
2023/04/22 04:27:47;;;;;;;;;;;;;;;7.64;61.44;96554.98;108546;1281;22586;-84
2023/04/22 04:30:15;;;;;;;;;;;;;;;8.25;61.06;96552.33;108414;1282;170686;-85
2023/04/22 04:32:44;;;;;;;;;;;;;;;8.91;60.37;96554.54;108556;1282;23051;-84
2023/04/22 04:35:13;;;;;;;;;;;;;;;9.44;58.74;96552.39;108539;1281;26383;-84
2023/04/22 04:37:41;;;;;;;;;;;;;;;9.61;57.47;96554.91;108552;1282;25477;-84
2023/04/22 04:40:11;;;;;;;;;;;;;;;9.61;57.04;96554.38;108556;1282;22548;-84
2023/04/22 04:42:38;;;;;;;;;;;;;;;9.73;56.71;96554.57;108559;1282;25285;-84
2023/04/22 04:45:06;;;;;;;;;;;;;;;9.98;56.06;96557.33;108483;1282;23393;-84
2023/04/22 04:47:33;;;;;;;;;;;;;;;10.17;55.19;96560.38;108508;1278;22542;-84
2023/04/22 04:50:03;;;;;;;;;;;;;;;10.53;54.89;96558.95;108573;1282;25293;-84
2023/04/22 04:52:35;;;;;;;;;;;;;;;11.13;54.66;96563.02;108591;1282;22564;-84
2023/04/22 04:55:05;;;;;;;;;;;;;;;11.81;53.58;96564.65;108570;1281;37718;-84
2023/04/22 04:57:32;;;;;;;;;;;;;;;11.97;51.72;96566.46;108539;1281;22515;-84
2023/04/22 05:00:00;;;;;;;;;;;;;;;12.28;51.52;96560.57;108617;1282;22517;-84
2023/04/22 05:02:27;;;;;;;;;;;;;;;12.88;51.21;96559.23;108550;1281;22513;-84
2023/04/22 05:04:55;;;;;;;;;;;;;;;13.39;50.20;96562.38;108511;1281;58422;-84
2023/04/22 05:07:22;;;;;;;;;;;;;;;13.74;49.91;96559.94;108531;1279;22505;-84
2023/04/22 05:09:49;;;;;;;;;;;;;;;14.14;49.13;96562.98;108520;1282;22591;-84
2023/04/22 05:12:17;;;;;;;;;;;;;;;14.48;47.11;96564.67;108548;1282;22546;-84
2023/04/22 05:14:45;;;;;;;;;;;;;;;14.30;46.28;96563.32;108584;1281;62279;-84
2023/04/22 05:17:13;;;;;;;;;;;;;;;14.47;45.65;96563.56;108601;1281;22563;-84
2023/04/22 05:19:40;;;;;;;;;;;;;;;14.85;45.35;96562.86;108512;1282;22470;-85
2023/04/22 05:22:07;;;;;;;;;;;;;;;15.56;44.99;96565.84;108533;1282;24518;-84
2023/04/22 05:24:35;;;;;;;;;;;;;;;16.55;44.36;96563.77;108441;1277;57762;-84
2023/04/22 05:27:02;;;;;;;;;;;;;;;17.42;42.66;96559.17;108539;1282;22515;-84
2023/04/22 05:29:30;;;;;;;;;;;;;;;18.23;41.67;96560.28;108521;1282;23293;-85
2023/04/22 05:31:57;;;;;;;;;;;;;;;18.82;40.61;96556.09;108563;1282;24373;-85
2023/04/22 05:34:25;;;;;;;;;;;;;;;19.58;39.78;96557.48;108491;1282;96423;-85
2023/04/22 05:36:52;;;;;;;;;;;;;;;20.44;39.23;96557.02;108571;1277;22615;-85
2023/04/22 05:39:20;;;;;;;;;;;;;;;20.79;36.62;96558.30;108552;1282;22497;-86
2023/04/22 05:41:47;;;;;;;;;;;;;;;20.97;37.00;96559.15;108632;1281;22533;-86
2023/04/22 05:44:17;;;;;;;;;;;;;;;21.12;34.93;96561.45;108521;1281;73879;-86
2023/04/22 05:46:44;;;;;;;;;;;;;;;21.14;35.23;96562.52;108530;1278;22549;-85
2023/04/22 05:49:12;;;;;;;;;;;;;;;21.69;34.82;96558.61;108597;1279;22714;-86
2023/04/22 05:51:39;;;;;;;;;;;;;;;22.18;34.16;96559.46;108577;1281;22542;-86
2023/04/22 05:54:06;;;;;;;;;;;;;;;22.29;33.27;96559.70;108569;1281;23659;-86
2023/04/22 05:56:34;;;;;;;;;;;;;;;22.48;33.23;96560.39;108470;1282;64452;-85
2023/04/22 05:59:01;;;;;;;;;;;;;;;22.57;32.24;96558.40;108548;1276;24964;-85
2023/04/22 06:01:29;;;;;;;;;;;;;;;22.76;32.61;96557.14;108683;1279;22588;-85
2023/04/22 06:03:57;;;;;;;;;;;;;;;23.34;32.34;96558.02;108580;1279;23902;-85
2023/04/22 06:06:26;;;;;;;;;;;;;;;23.57;31.21;96558.39;108517;1271;32986;-85
2023/04/22 06:08:53;;;;;;;;;;;;;;;23.69;31.15;96561.52;108551;1281;25400;-84
2023/04/22 06:11:21;;;;;;;;;;;;;;;24.00;31.14;96561.20;108541;1282;22566;-85
2023/04/22 06:13:50;;;;;;;;;;;;;;;24.26;30.72;96564.41;108544;1282;22680;-84
2023/04/22 06:16:18;;;;;;;;;;;;;;;24.33;30.46;96565.20;108536;1275;49656;-84
2023/04/22 06:18:46;;;;;;;;;;;;;;;24.77;30.10;96567.49;108545;1282;22596;-83
2023/04/22 06:21:14;;;;;;;;;;;;;;;25.48;30.04;96564.39;108519;1282;22625;-84
2023/04/22 06:23:42;;;;;;;;;;;;;;;25.91;29.08;96564.80;108585;1282;22573;-84
2023/04/22 06:26:10;;;;;;;;;;;;;;;26.27;29.17;96564.99;108498;1282;33394;-84
2023/04/22 06:28:38;;;;;;;;;;;;;;;26.86;28.53;96560.25;108572;1282;22516;-84
2023/04/22 06:31:06;;;;;;;;;;;;;;;26.92;27.64;96564.62;108552;1277;22615;-84
2023/04/22 06:33:33;;;;;;;;;;;;;;;27.11;27.64;96565.92;108508;1282;22547;-84
2023/04/22 06:36:01;;;;;;;;;;;;;;;27.61;27.35;96564.86;108516;1279;60901;-84
2023/04/22 06:38:28;;;;;;;;;;;;;;;28.31;27.13;96564.27;108559;1279;22716;-84
2023/04/22 06:40:56;;;;;;;;;;;;;;;28.98;27.15;96571.95;108572;1282;24226;-84
2023/04/22 06:43:24;;;;;;;;;;;;;;;29.51;26.85;96567.30;108545;1276;22531;-84
2023/04/22 06:45:51;;;;;;;;;;;;;;;30.06;26.51;96571.73;108558;1281;79871;-84
2023/04/22 06:48:18;;;;;;;;;;;;;;;30.82;25.85;96567.73;108549;1282;22531;-84
2023/04/22 06:50:48;;;;;;;;;;;;;;;31.09;24.99;96571.04;108567;1274;22707;-84
2023/04/22 06:53:19;;;;;;;;;;;;;;;31.46;25.26;96569.95;108607;1281;22550;-84
2023/04/22 06:55:49;;;;;;;;;;;;;;;31.89;24.41;96565.27;108582;1281;46877;-84
2023/04/22 06:58:16;;;;;;;;;;;;;;;31.70;24.34;96566.66;108507;1282;25010;-84
2023/04/22 07:00:43;;;;;;;;;;;;;;;32.37;24.31;96565.92;108557;1281;22520;-84
2023/04/22 07:03:11;;;;;;;;;;;;;;;32.97;23.89;96567.85;108649;1281;22774;-84
2023/04/22 07:05:39;;;;;;;;;;;;;;;33.32;23.55;96563.91;108498;1277;40468;-83
2023/04/22 07:08:06;;;;;;;;;;;;;;;33.74;23.13;96568.58;108564;1282;22517;-84
2023/04/22 07:10:34;;;;;;;;;;;;;;;34.32;23.25;96567.29;108538;1282;23794;-84
2023/04/22 07:13:01;;;;;;;;;;;;;;;35.32;22.74;96568.20;108546;1274;22674;-84
2023/04/22 07:15:29;;;;;;;;;;;;;;;36.08;21.89;96561.32;108500;1280;47838;-84
2023/04/22 07:17:56;;;;;;;;;;;;;;;35.55;19.76;96563.91;108553;1275;22544;-84
2023/04/22 07:20:24;;;;;;;;;;;;;;;34.34;19.79;96566.30;108541;1282;22656;-84
2023/04/22 07:22:51;;;;;;;;;;;;;;;33.99;19.84;96566.22;108524;1282;25340;-81
2023/04/22 07:25:19;;;;;;;;;;;;;;;34.27;20.78;96565.30;108470;1282;51826;-81
2023/04/22 07:27:46;;;;;;;;;;;;;;;35.02;20.52;96560.40;108536;1282;22543;-81
2023/04/22 07:30:14;;;;;;;;;;;;;;;35.59;20.41;96563.66;108505;1282;22564;-83
2023/04/22 07:32:42;;;;;;;;;;;;;;;36.11;19.73;96562.58;108541;1282;22719;-83
2023/04/22 07:35:12;;;;;;;;;;;;;;;35.14;17.73;96562.36;108435;1277;46264;-82
2023/04/22 07:37:40;;;;;;;;;;;;;;;34.63;19.13;96561.64;108499;1282;24327;-82
2023/04/22 07:40:10;;;;;;;;;;;;;;;34.40;18.27;96560.80;108528;1280;23929;-82
2023/04/22 07:42:38;;;;;;;;;;;;;;;34.10;19.03;96563.55;108662;1281;22537;-82
2023/04/22 07:45:07;;;;;;;;;;;;;;;34.99;19.41;96558.75;108472;1281;44530;-82
2023/04/22 07:47:34;;;;;;;;;;;;;;;35.20;17.88;96557.70;108539;1274;22588;-82
2023/04/22 07:50:02;;;;;;;;;;;;;;;35.03;19.10;96556.20;108631;1281;22511;-82
2023/04/22 07:52:29;;;;;;;;;;;;;;;35.40;17.68;96557.42;108601;1275;22628;-82
2023/04/22 07:54:57;;;;;;;;;;;;;;;34.90;17.88;96557.15;108533;1278;50584;-82
2023/04/22 07:57:24;;;;;;;;;;;;;;;34.50;16.82;96559.32;108552;1279;22627;-82
2023/04/22 07:59:52;;;;;;;;;;;;;;;33.28;17.25;96558.12;108624;1281;23678;-82
2023/04/22 08:02:19;;;;;;;;;;;;;;;33.46;18.05;96561.15;108586;1275;22513;-82
2023/04/22 08:04:46;;;;;;;;;;;;;;;33.57;17.69;96562.86;108479;1282;51266;-82
2023/04/22 08:07:14;;;;;;;;;;;;;;;34.17;19.11;96559.97;108520;1282;22515;-82
2023/04/22 08:09:42;;;;;;;;;;;;;;;34.90;17.15;96556.36;108545;1276;22551;-82
2023/04/22 08:12:09;;;;;;;;;;;;;;;33.63;16.68;96554.76;108554;1282;22573;-82
2023/04/22 08:14:37;;;;;;;;;;;;;;;32.80;17.88;96553.06;108533;1274;33314;-81
2023/04/22 08:17:04;;;;;;;;;;;;;;;33.95;19.17;96552.91;108573;1282;22525;-81
2023/04/22 08:19:32;;;;;;;;;;;;;;;35.49;18.20;96553.82;108535;1275;22540;-81
2023/04/22 08:21:59;;;;;;;;;;;;;;;35.80;16.75;96555.33;108551;1282;22546;-81
2023/04/22 08:24:26;;;;;;;;;;;;;;;34.30;15.52;96557.77;108536;1275;43678;-81
2023/04/22 08:26:53;;;;;;;;;;;;;;;32.93;16.61;96555.76;108649;1280;22812;-81
2023/04/22 08:29:21;;;;;;;;;;;;;;;32.54;17.47;96558.40;108537;1282;25454;-81
2023/04/22 08:31:48;;;;;;;;;;;;;;;33.87;18.54;96554.77;108550;1279;22548;-81
2023/04/22 08:34:15;;;;;;;;;;;;;;;35.56;18.40;96555.07;108539;1281;45889;-81
2023/04/22 08:36:43;;;;;;;;;;;;;;;36.89;17.73;96555.06;108541;1282;22561;-81
2023/04/22 08:39:10;;;;;;;;;;;;;;;37.81;16.13;96555.30;108541;1282;22610;-81
2023/04/22 08:41:38;;;;;;;;;;;;;;;35.96;13.61;96557.83;108524;1273;23973;-81
2023/04/22 08:44:05;;;;;;;;;;;;;;;34.03;15.94;96558.96;108523;1282;24232;-81
2023/04/22 08:46:32;;;;;;;;;;;;;;;34.21;15.81;96560.13;108461;1282;56394;-81
2023/04/22 08:49:02;;;;;;;;;;;;;;;34.12;16.78;96564.54;108538;1282;22504;-81
2023/04/22 08:51:32;;;;;;;;;;;;;;;34.24;15.47;96563.27;108573;1275;22645;-81
2023/04/22 08:53:59;;;;;;;;;;;;;;;32.94;14.45;96564.27;108553;1275;23231;-81
2023/04/22 08:56:28;;;;;;;;;;;;;;;31.60;15.51;96560.73;108474;1273;69267;-80
2023/04/22 08:58:55;;;;;;;;;;;;;;;30.68;15.95;96560.63;108594;1282;22507;-80
2023/04/22 09:01:24;;;;;;;;;;;;;;;30.27;16.76;96560.89;108512;1282;22517;-81
2023/04/22 09:03:51;;;;;;;;;;;;;;;30.10;17.79;96558.79;108534;1282;25280;-81
2023/04/22 09:06:20;;;;;;;;;;;;;;;30.85;18.04;96554.46;108501;1282;45148;-80
2023/04/22 09:08:49;;;;;;;;;;;;;;;30.11;16.78;96556.00;108581;1282;25233;-81
2023/04/22 09:11:16;;;;;;;;;;;;;;;28.57;17.96;96554.91;108632;1281;24059;-81
2023/04/22 09:13:43;;;;;;;;;;;;;;;28.42;20.30;96548.65;108623;1270;22551;-81
2023/04/22 09:16:11;;;;;;;;;;;;;;;29.10;20.13;96546.29;108483;1282;51991;-81
2023/04/22 09:18:42;;;;;;;;;;;;;;;28.93;19.94;96548.80;108550;1282;25416;-82
2023/04/22 09:21:09;;;;;;;;;;;;;;;27.83;20.40;96542.89;108580;1276;22564;-82
2023/04/22 09:23:43;;;;;;;;;;;;;;;27.11;21.22;96541.73;108533;1282;22617;-81
2023/04/22 09:26:11;;;;;;;;;;;;;;;26.07;21.56;96543.37;108500;1282;42364;-81
2023/04/22 09:28:47;;;;;;;;;;;;;;;24.81;22.09;96540.41;108518;1282;22505;-81
2023/04/22 09:31:15;;;;;;;;;;;;;;;23.47;22.90;96536.95;108621;1281;22504;-81
2023/04/22 09:33:46;;;;;;;;;;;;;;;22.49;24.27;96540.73;108638;1281;22504;-84
2023/04/22 09:36:13;;;;;;;;;;;;;;;21.58;25.05;96535.86;108571;1273;28678;-81
2023/04/22 09:38:50;;;;;;;;;;;;;;;21.34;25.37;96529.44;108548;1278;22527;-81
2023/04/22 09:41:17;;;;;;;;;;;;;;;21.17;26.64;96531.31;107963;1275;24239;-81
2023/04/22 09:43:45;;;;;;;;;;;;;;;20.90;26.49;96530.33;108654;1275;25536;-80
2023/04/22 09:46:12;;;;;;;;;;;;;;;20.07;27.74;96535.05;104276;1279;5461327;-76
2023/04/22 09:48:44;;;;;;;;;;;;;;;19.64;27.39;96533.03;107952;1275;23294;-76
2023/04/22 09:51:15;;;;;;;;;;;;;;;19.93;28.20;96528.45;108098;1282;23981;-80
2023/04/22 09:53:42;;;;;;;;;;;;;;;20.37;27.46;96517.52;108515;1274;23260;-79
2023/04/22 09:56:10;;;;;;;;;;;;;;;20.42;27.45;96518.94;108169;1274;22514;-77
2023/04/22 09:58:38;;;;;;;;;;;;;;;20.46;28.15;96515.11;108092;1274;22579;-77
2023/04/22 10:01:07;;;;;;;;;;;;;;;20.22;27.57;96513.95;107977;1275;22516;-77
2023/04/22 10:03:34;;;;;;;;;;;;;;;19.90;27.99;96512.58;108097;1282;23777;-77
2023/04/22 10:06:02;;;;;;;;;;;;;;;19.93;28.82;96511.38;108090;1274;22508;-77
2023/04/22 10:08:31;;;;;;;;;;;;;;;20.21;29.22;96510.30;108091;1274;22511;-76
2023/04/22 10:10:59;;;;;;;;;;;;;;;20.57;29.55;96508.69;108144;1281;22526;-77
2023/04/22 10:13:26;;;;;;;;;;;;;;;20.76;28.62;96507.64;108118;1281;22545;-77
2023/04/22 10:15:55;;;;;;;;;;;;;;;20.36;27.94;96505.34;108105;1281;25296;-81
2023/04/22 10:18:24;;;;;;;;;;;;;;;19.80;28.11;96503.39;108213;1279;22549;-81
2023/04/22 10:20:52;;;;;;;;;;;;;;;19.70;29.07;96498.38;108245;1282;23791;-81
2023/04/22 10:23:21;;;;;;;;;;;;;;;19.64;29.61;96505.90;108119;1280;22560;-80
2023/04/22 10:25:50;;;;;;;;;;;;;;;19.89;29.86;96500.57;108108;1274;24232;-81
2023/04/22 10:28:20;;;;;;;;;;;;;;;20.20;30.32;96500.27;108261;1270;22508;-80
2023/04/22 10:30:47;;;;;;;;;;;;;;;20.35;29.09;96500.17;108265;1281;22513;-81
2023/04/22 10:33:33;;;;;;;;;;;;;;;20.38;29.97;96497.86;108195;1279;24156;-83
2023/04/22 10:36:06;;;;;;;;;;;;;;;20.45;28.59;96497.45;108098;1274;23802;-82
2023/04/22 10:38:34;;;;;;;;;;;;;;;20.08;28.42;96501.02;108118;1275;22559;-82
2023/04/22 10:41:02;;;;;;;;;;;;;;;19.67;29.48;96497.16;108060;1281;22810;-82
2023/04/22 10:43:40;;;;;;;;;;;;;;;19.80;30.00;96495.92;108055;1281;22518;-83
2023/04/22 10:46:28;;;;;;;;;;;;;;;19.90;30.35;96491.46;108052;1275;22527;-82
2023/04/22 10:48:56;;;;;;;;;;;;;;;20.24;31.27;96489.40;108048;1275;22523;-82
2023/04/22 10:51:39;;;;;;;;;;;;;;;20.51;30.31;96483.38;108100;1282;25422;-83
2023/04/22 10:54:06;;;;;;;;;;;;;;;20.68;30.51;96484.52;108116;1274;24902;-83
2023/04/22 10:56:33;;;;;;;;;;;;;;;20.81;30.15;96486.75;108052;1274;25207;-81
2023/04/22 10:59:14;;;;;;;;;;;;;;;20.81;29.39;96482.13;107947;1279;25247;-83
2023/04/22 11:01:42;;;;;;;;;;;;;;;20.85;30.39;96482.33;107988;1275;25201;-83
2023/04/22 11:04:22;;;;;;;;;;;;;;;20.98;29.81;96479.02;108051;1275;22507;-84
2023/04/22 11:07:03;;;;;;;;;;;;;;;20.98;29.74;96476.87;108155;1281;22504;-80
2023/04/22 11:09:32;;;;;;;;;;;;;;;20.80;28.79;96472.48;108115;1274;22631;-81
2023/04/22 11:12:15;;;;;;;;;;;;;;;20.56;29.24;96475.98;108069;1274;24067;-80
2023/04/22 11:14:42;;;;;;;;;;;;;;;20.61;30.10;96472.56;108090;1274;22509;-80
2023/04/22 11:17:10;;;;;;;;;;;;;;;20.76;29.50;96470.09;108133;1282;22539;-80
2023/04/22 11:19:37;;;;;;;;;;;;;;;20.75;29.83;96466.91;108113;1279;22657;-79
2023/04/22 11:22:05;;;;;;;;;;;;;;;20.85;30.45;96462.70;108123;1282;24335;-81
2023/04/22 11:24:32;;;;;;;;;;;;;;;21.01;30.83;96462.77;108102;1271;22501;-79
2023/04/22 11:27:02;;;;;;;;;;;;;;;21.18;31.08;96459.64;108116;1282;22563;-79
2023/04/22 11:29:30;;;;;;;;;;;;;;;21.35;30.78;96455.88;108119;1281;22534;-79
2023/04/22 11:31:57;;;;;;;;;;;;;;;21.18;28.88;96454.47;108103;1275;25384;-79
2023/04/22 11:34:25;;;;;;;;;;;;;;;20.34;28.43;96455.20;108102;1281;22564;-79
2023/04/22 11:36:52;;;;;;;;;;;;;;;19.68;29.57;96456.07;108150;1282;22517;-79
2023/04/22 11:39:20;;;;;;;;;;;;;;;19.43;30.38;96457.69;108086;1279;22547;-79
2023/04/22 11:41:47;;;;;;;;;;;;;;;19.54;30.27;96451.82;108145;1274;22556;-79
2023/04/22 11:44:14;;;;;;;;;;;;;;;19.46;29.53;96452.57;108142;1275;22638;-79
2023/04/22 11:46:44;;;;;;;;;;;;;;;19.43;30.12;96446.64;108148;1275;22515;-80
2023/04/22 11:49:15;;;;;;;;;;;;;;;19.50;30.73;96446.48;108123;1282;22582;-79
2023/04/22 11:51:53;;;;;;;;;;;;;;;19.42;30.99;96446.69;108149;1282;22519;-79
2023/04/22 11:54:29;;;;;;;;;;;;;;;19.60;30.83;96443.77;108108;1267;23996;-79
2023/04/22 11:56:56;;;;;;;;;;;;;;;19.42;31.41;96443.59;108126;1275;22545;-79
2023/04/22 11:59:24;;;;;;;;;;;;;;;19.15;31.48;96439.92;108149;1274;22511;-79
2023/04/22 12:01:52;;;;;;;;;;;;;;;18.87;31.57;96438.23;108097;1282;24012;-78
2023/04/22 12:04:22;;;;;;;;;;;;;;;18.72;31.23;96432.52;108120;1282;23175;-76
2023/04/22 12:06:50;;;;;;;;;;;;;;;18.60;31.41;96433.05;108096;1282;23550;-76
2023/04/22 12:09:18;;;;;;;;;;;;;;;18.64;32.21;96433.80;108085;1277;22609;-76
2023/04/22 12:11:45;;;;;;;;;;;;;;;18.80;32.21;96433.47;108117;1282;22533;-75
2023/04/22 12:14:13;;;;;;;;;;;;;;;18.57;31.39;96438.16;108206;1282;24299;-84
2023/04/22 12:16:41;;;;;;;;;;;;;;;18.43;31.44;96438.91;108437;1281;45030;-86
2023/04/22 12:19:09;;;;;;;;;;;;;;;18.42;32.14;96437.95;108495;1263;22523;-85
2023/04/22 12:21:36;;;;;;;;;;;;;;;18.68;32.37;96432.16;108560;1273;24009;-87
2023/04/22 12:24:10;;;;;;;;;;;;;;;18.99;32.15;96437.90;108486;1275;22503;-86
2023/04/22 12:26:37;;;;;;;;;;;;;;;18.90;32.39;96436.19;108358;1274;88373;-85
2023/04/22 12:29:05;;;;;;;;;;;;;;;19.12;32.05;96436.70;108432;1275;25396;-85
2023/04/22 12:31:33;;;;;;;;;;;;;;;19.33;31.27;96428.42;108490;1282;22579;-84
2023/04/22 12:34:01;;;;;;;;;;;;;;;19.41;31.17;96426.61;108476;1282;22968;-85
2023/04/22 17:17:44;;;;;;;9.40;3.90;;;;;;;18.37;32.84;96325.08;105375;1305;545398;-84
2023/04/22 17:20:16;;;;;;;5.20;3.70;;;;;;;17.95;33.51;96326.14;108265;1280;23031;-85
2023/04/22 17:22:47;;;;;;;5.70;4.00;;;;;;;17.66;34.22;96326.52;108233;1286;24200;-85
2023/04/22 17:25:21;;;;;;;7.20;4.30;;;;;;;17.44;34.82;96329.31;108254;1286;23801;-85